createdAt,value
2023-09-17T00:00:49.937Z,28.15
2023-09-17T00:01:52.008Z,24.58
2023-09-17T00:02:54.175Z,29.27
2023-09-17T00:03:56.643Z,32.65
2023-09-17T00:04:58.812Z,31.95
2023-09-17T00:06:00.829Z,27.92
2023-09-17T00:07:02.733Z,27.70
2023-09-17T00:08:07.454Z,25.13
2023-09-17T00:09:09.316Z,28.50
2023-09-17T00:10:12.361Z,24.73
2023-09-17T00:11:14.266Z,25.30
2023-09-17T00:12:16.340Z,31.92
2023-09-17T00:13:18.322Z,34.22
2023-09-17T00:14:20.239Z,34.22
2023-09-17T00:15:22.672Z,33.00
2023-09-17T00:16:25.864Z,31.58
2023-09-17T00:17:27.938Z,31.42
2023-09-17T00:18:29.903Z,31.38
2023-09-17T00:19:33.867Z,32.22
2023-09-17T00:20:36.041Z,28.55
2023-09-17T00:21:37.952Z,28.65
2023-09-17T00:22:40.159Z,29.15
2023-09-17T00:23:42.133Z,29.15
2023-09-17T00:24:44.134Z,29.13
2023-09-17T00:25:46.082Z,25.75
2023-09-17T00:26:48.699Z,26.17
2023-09-17T00:27:50.602Z,32.38
2023-09-17T00:28:52.557Z,34.42
2023-09-17T00:29:54.540Z,33.30
2023-09-17T00:30:57.108Z,26.30
2023-09-17T00:31:59.130Z,26.77
2023-09-17T00:33:01.124Z,26.90
2023-09-17T00:34:04.154Z,28.27
2023-09-17T00:35:07.084Z,30.88
2023-09-17T00:36:08.937Z,30.55
2023-09-17T00:37:13.017Z,32.67
2023-09-17T00:38:16.055Z,30.35
2023-09-17T00:39:18.498Z,30.90
2023-09-17T00:40:26.238Z,28.85
2023-09-17T00:41:28.217Z,24.40
2023-09-17T00:42:30.160Z,27.17
2023-09-17T00:43:32.345Z,29.02
2023-09-17T00:44:34.290Z,27.42
2023-09-17T00:45:36.449Z,27.13
2023-09-17T00:46:38.718Z,26.15
2023-09-17T00:47:40.838Z,27.45
2023-09-17T00:48:43.114Z,28.33
2023-09-17T00:49:45.086Z,24.67
2023-09-17T00:50:47.047Z,30.10
2023-09-17T00:51:49.316Z,28.58
2023-09-17T00:52:51.521Z,26.23
2023-09-17T00:53:57.574Z,25.65
2023-09-17T00:54:59.588Z,27.45
2023-09-17T00:56:01.874Z,28.80
2023-09-17T00:57:04.136Z,30.25
2023-09-17T00:58:06.853Z,26.45
2023-09-17T00:59:08.796Z,27.20
2023-09-17T01:00:11.137Z,26.10
2023-09-17T01:01:13.893Z,26.92
2023-09-17T01:02:19.253Z,28.00
2023-09-17T01:03:22.141Z,25.70
2023-09-17T01:04:24.998Z,26.88
2023-09-17T01:05:37.832Z,26.45
2023-09-17T01:06:41.274Z,25.35
2023-09-17T01:07:43.580Z,28.90
2023-09-17T01:08:45.864Z,29.13
2023-09-17T01:09:48.366Z,28.98
2023-09-17T01:10:50.322Z,31.30
2023-09-17T01:11:52.654Z,32.15
2023-09-17T01:12:54.701Z,31.52
2023-09-17T01:14:09.012Z,28.35
2023-09-17T01:15:11.155Z,37.25
2023-09-17T01:16:13.123Z,30.73
2023-09-17T01:17:15.346Z,30.70
2023-09-17T01:18:23.498Z,29.38
2023-09-17T01:19:30.431Z,31.55
2023-09-17T01:20:38.358Z,28.73
2023-09-17T01:21:43.030Z,32.28
2023-09-17T01:22:48.284Z,34.58
2023-09-17T01:24:08.829Z,32.13
2023-09-17T01:25:37.669Z,28.17
2023-09-17T01:26:40.470Z,30.05
2023-09-17T01:27:42.850Z,31.42
2023-09-17T01:28:45.065Z,24.40
2023-09-17T01:29:50.712Z,26.52
2023-09-17T01:30:52.604Z,27.17
2023-09-17T01:31:56.675Z,26.23
2023-09-17T01:32:58.644Z,24.50
2023-09-17T01:34:01.333Z,28.40
2023-09-17T01:35:03.533Z,29.55
2023-09-17T01:36:12.464Z,28.50
2023-09-17T01:37:17.872Z,24.95
2023-09-17T01:38:20.719Z,30.70
2023-09-17T01:39:24.902Z,25.35
2023-09-17T01:40:26.952Z,28.85
2023-09-17T01:41:29.553Z,29.80
2023-09-17T01:42:31.678Z,28.08
2023-09-17T01:43:34.039Z,35.25
2023-09-17T01:44:37.093Z,33.00
2023-09-17T01:45:39.773Z,32.78
2023-09-17T01:46:42.212Z,33.08
2023-09-17T01:47:45.241Z,33.78
2023-09-17T01:48:47.252Z,32.60
2023-09-17T01:49:49.578Z,38.58
2023-09-17T01:50:51.596Z,37.88
2023-09-17T01:51:54.290Z,37.85
2023-09-17T01:52:56.982Z,41.42
2023-09-17T01:53:59.072Z,37.53
2023-09-17T01:55:04.275Z,37.83
2023-09-17T01:56:06.413Z,42.13
2023-09-17T01:57:09.394Z,40.10
2023-09-17T01:58:11.492Z,39.45
2023-09-17T01:59:13.629Z,43.50
2023-09-17T02:00:17.868Z,37.08
2023-09-17T02:01:19.785Z,40.90
2023-09-17T02:02:23.210Z,36.92
2023-09-17T02:03:25.296Z,38.35
2023-09-17T02:04:27.492Z,39.80
2023-09-17T02:05:29.540Z,46.42
2023-09-17T02:06:31.495Z,46.08
2023-09-17T02:07:33.715Z,46.38
2023-09-17T02:08:37.696Z,44.42
2023-09-17T02:09:39.595Z,48.05
2023-09-17T02:10:41.910Z,47.20
2023-09-17T02:11:43.865Z,44.28
2023-09-17T02:12:46.168Z,49.53
2023-09-17T02:13:48.191Z,43.17
2023-09-17T02:14:50.183Z,49.90
2023-09-17T02:15:52.142Z,51.72
2023-09-17T02:16:55.742Z,53.25
2023-09-17T02:17:57.751Z,49.35
2023-09-17T02:19:00.558Z,49.55
2023-09-17T02:20:03.613Z,43.08
2023-09-17T02:21:07.053Z,45.53
2023-09-17T02:22:09.029Z,45.78
2023-09-17T02:23:11.555Z,51.78
2023-09-17T02:24:13.978Z,54.80
2023-09-17T02:25:17.204Z,47.53
2023-09-17T02:26:19.351Z,45.80
2023-09-17T02:27:21.426Z,53.35
2023-09-17T02:28:23.417Z,57.58
2023-09-17T02:29:25.322Z,54.78
2023-09-17T02:30:27.252Z,59.97
2023-09-17T02:31:29.476Z,61.58
2023-09-17T02:32:31.694Z,59.00
2023-09-17T02:33:33.840Z,55.78
2023-09-17T02:34:36.264Z,61.33
2023-09-17T02:35:38.589Z,52.35
2023-09-17T02:36:40.574Z,52.60
2023-09-17T02:37:42.655Z,57.25
2023-09-17T02:38:44.844Z,51.08
2023-09-17T02:39:46.768Z,58.00
2023-09-17T02:40:48.722Z,50.47
2023-09-17T02:41:52.308Z,50.80
2023-09-17T02:42:54.293Z,42.88
2023-09-17T02:43:57.003Z,51.97
2023-09-17T02:44:58.874Z,46.60
2023-09-17T02:46:00.922Z,46.70
2023-09-17T02:47:04.059Z,39.28
2023-09-17T02:48:06.306Z,44.10
2023-09-17T02:49:08.227Z,40.67
2023-09-17T02:50:11.121Z,41.88
2023-09-17T02:51:14.394Z,47.05
2023-09-17T02:52:16.778Z,43.67
2023-09-17T02:53:21.387Z,57.78
2023-09-17T02:54:23.741Z,56.60
2023-09-17T02:55:25.755Z,46.10
2023-09-17T02:56:27.850Z,52.72
2023-09-17T02:57:30.014Z,51.70
2023-09-17T02:58:31.913Z,45.47
2023-09-17T02:59:34.844Z,46.67
2023-09-17T03:00:40.042Z,52.53
2023-09-17T03:01:42.588Z,47.13
2023-09-17T03:02:48.738Z,52.70
2023-09-17T03:03:51.864Z,47.42
2023-09-17T03:04:54.171Z,49.40
2023-09-17T03:05:57.865Z,50.90
2023-09-17T03:06:59.974Z,54.53
2023-09-17T03:08:03.786Z,45.70
2023-09-17T03:09:11.486Z,45.67
2023-09-17T03:10:14.742Z,47.47
2023-09-17T03:11:19.057Z,43.17
2023-09-17T03:12:22.383Z,51.30
2023-09-17T03:13:24.958Z,41.13
2023-09-17T03:14:26.992Z,41.28
2023-09-17T03:15:29.712Z,54.10
2023-09-17T03:16:31.792Z,43.03
2023-09-17T03:17:36.694Z,48.35
2023-09-17T03:18:39.811Z,40.25
2023-09-17T03:19:43.619Z,58.45
2023-09-17T03:20:45.770Z,42.30
2023-09-17T03:21:47.754Z,39.78
2023-09-17T03:22:50.213Z,42.72
2023-09-17T03:23:53.412Z,44.58
2023-09-17T03:25:03.383Z,43.60
2023-09-17T03:26:09.337Z,50.97
2023-09-17T03:27:11.212Z,49.53
2023-09-17T03:28:13.123Z,39.22
2023-09-17T03:29:15.790Z,48.25
2023-09-17T03:30:17.695Z,56.75
2023-09-17T03:31:19.716Z,50.90
2023-09-17T03:32:22.634Z,50.70
2023-09-17T03:33:25.245Z,52.28
2023-09-17T03:34:27.863Z,55.35
2023-09-17T03:35:29.952Z,43.25
2023-09-17T03:36:32.269Z,47.47
2023-09-17T03:37:34.238Z,54.30
2023-09-17T03:38:36.269Z,51.42
2023-09-17T03:39:38.224Z,47.15
2023-09-17T03:40:40.972Z,46.47
2023-09-17T03:41:43.802Z,60.92
2023-09-17T03:42:47.461Z,57.65
2023-09-17T03:43:49.895Z,44.95
2023-09-17T03:44:52.009Z,48.95
2023-09-17T03:45:54.116Z,46.22
2023-09-17T03:46:56.178Z,50.53
2023-09-17T03:47:58.280Z,50.55
2023-09-17T03:49:00.754Z,54.47
2023-09-17T03:50:02.720Z,53.83
2023-09-17T03:51:05.832Z,57.10
2023-09-17T03:52:08.599Z,50.65
2023-09-17T03:53:11.005Z,51.15
2023-09-17T03:54:12.952Z,46.28
2023-09-17T03:55:15.228Z,39.72
2023-09-17T03:56:18.216Z,47.78
2023-09-17T03:57:20.214Z,51.08
2023-09-17T03:58:22.937Z,47.83
2023-09-17T03:59:24.931Z,42.05
2023-09-17T04:00:26.842Z,52.90
2023-09-17T04:01:30.329Z,46.25
2023-09-17T04:02:33.058Z,48.45
2023-09-17T04:03:35.358Z,55.17
2023-09-17T04:04:37.406Z,47.95
2023-09-17T04:05:39.450Z,45.05
2023-09-17T04:06:41.344Z,48.40
2023-09-17T04:07:46.795Z,40.00
2023-09-17T04:08:48.734Z,39.17
2023-09-17T04:09:50.720Z,48.00
2023-09-17T04:10:55.934Z,45.00
2023-09-17T04:12:04.721Z,55.47
2023-09-17T04:13:07.257Z,54.92
2023-09-17T04:14:09.337Z,44.97
2023-09-17T04:15:18.205Z,54.50
2023-09-17T04:16:24.588Z,56.08
2023-09-17T04:17:26.658Z,50.42
2023-09-17T04:18:28.607Z,50.22
2023-09-17T04:19:30.544Z,57.55
2023-09-17T04:20:32.516Z,49.10
2023-09-17T04:21:34.505Z,48.53
2023-09-17T04:22:36.613Z,46.20
2023-09-17T04:23:38.551Z,42.13
2023-09-17T04:24:40.493Z,49.47
2023-09-17T04:25:42.821Z,47.00
2023-09-17T04:26:46.273Z,48.70
2023-09-17T04:27:48.879Z,45.00
2023-09-17T04:28:53.883Z,56.25
2023-09-17T04:29:55.945Z,47.05
2023-09-17T04:30:57.804Z,50.80
2023-09-17T04:32:00.019Z,49.83
2023-09-17T04:33:02.725Z,55.22
2023-09-17T04:34:05.146Z,51.83
2023-09-17T04:35:10.360Z,45.35
2023-09-17T04:36:12.339Z,55.20
2023-09-17T04:37:17.642Z,53.97
2023-09-17T04:38:19.799Z,43.90
2023-09-17T04:39:21.836Z,44.65
2023-09-17T04:40:26.923Z,44.83
2023-09-17T04:41:29.106Z,46.13
2023-09-17T04:42:32.816Z,45.92
2023-09-17T04:43:34.735Z,57.13
2023-09-17T04:44:36.714Z,52.67
2023-09-17T04:45:40.000Z,54.97
2023-09-17T04:46:58.844Z,49.77
2023-09-17T04:48:01.273Z,40.03
2023-09-17T04:49:03.968Z,35.28
2023-09-17T04:50:09.447Z,50.72
2023-09-17T04:51:17.067Z,51.22
2023-09-17T04:52:19.593Z,47.53
2023-09-17T04:53:21.913Z,54.13
2023-09-17T04:54:25.010Z,54.22
2023-09-17T04:55:27.538Z,69.25
2023-09-17T04:56:30.176Z,59.75
2023-09-17T04:57:33.316Z,58.00
2023-09-17T04:58:35.454Z,63.08
2023-09-17T04:59:39.261Z,70.30
2023-09-17T05:00:41.136Z,67.65
2023-09-17T05:01:43.313Z,58.92
2023-09-17T05:02:45.931Z,63.42
2023-09-17T05:03:48.736Z,58.40
2023-09-17T05:04:52.030Z,63.63
2023-09-17T05:05:54.661Z,61.83
2023-09-17T05:06:57.576Z,59.97
2023-09-17T05:08:01.725Z,70.55
2023-09-17T05:09:04.181Z,68.03
2023-09-17T05:10:08.835Z,63.30
2023-09-17T05:11:12.268Z,62.83
2023-09-17T05:12:15.131Z,64.97
2023-09-17T05:13:18.189Z,80.63
2023-09-17T05:14:21.859Z,93.90
2023-09-17T05:15:25.633Z,77.60
2023-09-17T05:16:30.791Z,78.05
2023-09-17T05:17:34.575Z,75.93
2023-09-17T05:18:38.362Z,83.97
2023-09-17T05:19:40.580Z,86.07
2023-09-17T05:20:45.516Z,86.13
2023-09-17T05:21:47.743Z,76.35
2023-09-17T05:22:49.833Z,79.07
2023-09-17T05:23:53.013Z,77.05
2023-09-17T05:24:55.392Z,84.93
2023-09-17T05:25:57.863Z,79.63
2023-09-17T05:27:02.174Z,80.90
2023-09-17T05:28:08.008Z,79.35
2023-09-17T05:29:16.677Z,84.47
2023-09-17T05:30:20.625Z,75.35
2023-09-17T05:31:22.762Z,68.68
2023-09-17T05:32:24.844Z,69.82
2023-09-17T05:33:27.510Z,69.95
2023-09-17T05:34:31.041Z,62.42
2023-09-17T05:35:33.451Z,63.10
2023-09-17T05:36:35.342Z,63.63
2023-09-17T05:37:37.264Z,71.43
2023-09-17T05:38:43.044Z,62.92
2023-09-17T05:39:44.932Z,62.50
2023-09-17T05:40:46.852Z,64.60
2023-09-17T05:41:49.201Z,59.95
2023-09-17T05:42:51.278Z,69.03
2023-09-17T05:43:53.521Z,68.00
2023-09-17T05:44:55.668Z,64.93
2023-09-17T05:45:59.228Z,55.28
2023-09-17T05:47:10.796Z,61.92
2023-09-17T05:48:12.693Z,65.60
2023-09-17T05:49:14.658Z,61.88
2023-09-17T05:50:16.586Z,62.40
2023-09-17T05:51:18.759Z,56.95
2023-09-17T05:52:22.356Z,63.28
2023-09-17T05:53:24.314Z,58.88
2023-09-17T05:54:26.398Z,57.20
2023-09-17T05:55:30.085Z,50.42
2023-09-17T05:56:32.803Z,53.10
2023-09-17T05:57:35.191Z,53.17
2023-09-17T05:58:39.565Z,56.83
2023-09-17T05:59:43.312Z,59.65
2023-09-17T06:00:45.287Z,51.75
2023-09-17T06:01:47.511Z,57.28
2023-09-17T06:02:49.483Z,58.90
2023-09-17T06:03:53.124Z,59.78
2023-09-17T06:04:56.002Z,50.80
2023-09-17T06:05:58.683Z,54.60
2023-09-17T06:07:00.880Z,49.33
2023-09-17T06:08:02.891Z,60.72
2023-09-17T06:09:04.976Z,59.15
2023-09-17T06:10:07.167Z,51.83
2023-09-17T06:11:09.072Z,54.63
2023-09-17T06:12:11.183Z,53.80
2023-09-17T06:13:13.507Z,54.35
2023-09-17T06:14:16.289Z,52.95
2023-09-17T06:15:18.823Z,48.50
2023-09-17T06:16:20.745Z,45.85
2023-09-17T06:17:22.909Z,48.42
2023-09-17T06:18:24.835Z,54.72
2023-09-17T06:19:28.305Z,50.45
2023-09-17T06:20:31.095Z,48.83
2023-09-17T06:21:34.870Z,46.88
2023-09-17T06:22:36.953Z,51.35
2023-09-17T06:23:39.505Z,48.72
2023-09-17T06:24:42.294Z,51.92
2023-09-17T06:25:44.204Z,55.28
2023-09-17T06:26:46.161Z,52.88
2023-09-17T06:27:48.067Z,46.90
2023-09-17T06:28:50.083Z,51.85
2023-09-17T06:29:53.038Z,49.22
2023-09-17T06:30:57.697Z,57.72
2023-09-17T06:32:00.658Z,49.58
2023-09-17T06:33:05.160Z,47.10
2023-09-17T06:34:10.584Z,46.42
2023-09-17T06:35:12.813Z,49.20
2023-09-17T06:36:15.600Z,51.00
2023-09-17T06:37:18.624Z,51.45
2023-09-17T06:38:21.742Z,49.60
2023-09-17T06:39:25.429Z,48.28
2023-09-17T06:40:29.051Z,52.65
2023-09-17T06:41:31.318Z,50.67
2023-09-17T06:42:34.398Z,51.53
2023-09-17T06:43:36.721Z,47.20
2023-09-17T06:44:38.690Z,50.95
2023-09-17T06:45:40.616Z,48.35
2023-09-17T06:46:42.654Z,43.60
2023-09-17T06:47:45.195Z,44.72
2023-09-17T06:48:47.361Z,48.42
2023-09-17T06:49:49.266Z,46.83
2023-09-17T06:50:51.179Z,48.80
2023-09-17T06:51:55.457Z,48.25
2023-09-17T06:52:57.391Z,48.38
2023-09-17T06:53:59.373Z,45.45
2023-09-17T06:55:01.267Z,50.22
2023-09-17T06:56:03.773Z,49.50
2023-09-17T06:57:05.672Z,45.25
2023-09-17T06:58:07.592Z,46.85
2023-09-17T06:59:09.820Z,49.55
2023-09-17T07:00:11.897Z,51.38
2023-09-17T07:01:13.875Z,52.67
2023-09-17T07:02:15.817Z,49.80
2023-09-17T07:03:17.683Z,51.72
2023-09-17T07:04:19.602Z,50.28
2023-09-17T07:05:21.619Z,46.35
2023-09-17T07:06:23.613Z,44.28
2023-09-17T07:07:25.741Z,44.30
2023-09-17T07:08:27.919Z,45.63
2023-09-17T07:09:30.157Z,43.97
2023-09-17T07:10:33.476Z,43.70
2023-09-17T07:11:35.644Z,43.33
2023-09-17T07:12:39.399Z,44.15
2023-09-17T07:13:41.805Z,43.35
2023-09-17T07:14:43.807Z,46.15
2023-09-17T07:15:45.844Z,39.70
2023-09-17T07:16:47.794Z,47.75
2023-09-17T07:17:49.892Z,38.22
2023-09-17T07:18:52.791Z,38.38
2023-09-17T07:19:54.782Z,38.45
2023-09-17T07:20:56.695Z,37.15
2023-09-17T07:21:58.583Z,40.35
2023-09-17T07:23:00.481Z,37.90
2023-09-17T07:24:02.386Z,41.03
2023-09-17T07:25:05.515Z,34.75
2023-09-17T07:26:07.871Z,39.28
2023-09-17T07:27:09.864Z,38.63
2023-09-17T07:28:11.885Z,37.13
2023-09-17T07:29:13.721Z,33.47
2023-09-17T07:30:16.294Z,35.25
2023-09-17T07:31:18.290Z,35.17
2023-09-17T07:32:20.207Z,34.58
2023-09-17T07:33:22.184Z,32.97
2023-09-17T07:34:25.903Z,34.97
2023-09-17T07:35:27.815Z,36.53
2023-09-17T07:36:30.883Z,37.45
2023-09-17T07:37:45.016Z,35.53
2023-09-17T07:38:52.936Z,36.00
2023-09-17T07:39:56.775Z,32.05
2023-09-17T07:40:58.728Z,37.30
2023-09-17T07:42:00.632Z,30.00
2023-09-17T07:43:04.221Z,32.67
2023-09-17T07:44:06.333Z,30.08
2023-09-17T07:45:09.146Z,39.28
2023-09-17T07:46:15.203Z,29.33
2023-09-17T07:47:18.297Z,32.67
2023-09-17T07:48:21.237Z,32.80
2023-09-17T07:49:28.270Z,34.13
2023-09-17T07:50:30.535Z,33.20
2023-09-17T07:51:33.223Z,32.28
2023-09-17T07:52:35.356Z,31.92
2023-09-17T07:53:37.316Z,34.85
2023-09-17T07:54:43.142Z,38.92
2023-09-17T07:55:45.107Z,37.35
2023-09-17T07:56:47.056Z,36.60
2023-09-17T07:57:49.201Z,29.85
2023-09-17T07:58:51.175Z,32.40
2023-09-17T07:59:54.290Z,33.95
2023-09-17T08:00:56.347Z,35.25
2023-09-17T08:01:59.319Z,31.77
2023-09-17T08:03:02.649Z,31.25
2023-09-17T08:04:04.848Z,33.35
2023-09-17T08:05:08.402Z,32.05
2023-09-17T08:06:12.479Z,33.22
2023-09-17T08:07:14.423Z,34.80
2023-09-17T08:08:16.782Z,30.00
2023-09-17T08:09:18.674Z,34.15
2023-09-17T08:10:21.592Z,25.45
2023-09-17T08:11:28.226Z,33.58
2023-09-17T08:12:30.284Z,35.47
2023-09-17T08:13:32.258Z,34.60
2023-09-17T08:14:35.746Z,30.05
2023-09-17T08:15:38.359Z,34.58
2023-09-17T08:16:40.402Z,31.10
2023-09-17T08:17:44.795Z,32.30
2023-09-17T08:18:46.715Z,29.48
2023-09-17T08:19:48.710Z,28.27
2023-09-17T08:20:50.643Z,36.42
2023-09-17T08:21:52.516Z,30.90
2023-09-17T08:22:54.492Z,36.83
2023-09-17T08:23:57.137Z,30.85
2023-09-17T08:24:59.118Z,34.95
2023-09-17T08:26:01.027Z,30.80
2023-09-17T08:27:03.005Z,30.88
2023-09-17T08:28:08.734Z,28.83
2023-09-17T08:29:12.024Z,32.35
2023-09-17T08:30:14.661Z,31.77
2023-09-17T08:31:17.599Z,31.33
2023-09-17T08:32:19.518Z,30.23
2023-09-17T08:33:21.408Z,30.90
2023-09-17T08:34:23.274Z,33.70
2023-09-17T08:35:25.886Z,28.77
2023-09-17T08:36:27.823Z,25.25
2023-09-17T08:37:30.189Z,26.88
2023-09-17T08:38:32.255Z,27.02
2023-09-17T08:39:34.322Z,25.77
2023-09-17T08:40:36.816Z,26.67
2023-09-17T08:41:39.895Z,24.77
2023-09-17T08:42:43.183Z,22.13
2023-09-17T08:43:47.151Z,26.85
2023-09-17T08:44:49.858Z,25.13
2023-09-17T08:45:52.162Z,23.50
2023-09-17T08:46:56.314Z,25.00
2023-09-17T08:47:58.712Z,25.38
2023-09-17T08:49:02.237Z,25.50
2023-09-17T08:50:05.312Z,21.73
2023-09-17T08:51:10.411Z,24.35
2023-09-17T08:52:12.499Z,23.13
2023-09-17T08:53:19.121Z,25.77
2023-09-17T08:54:31.316Z,25.63
2023-09-17T08:55:33.655Z,25.70
2023-09-17T08:56:38.327Z,23.30
2023-09-17T08:57:42.544Z,23.00
2023-09-17T08:58:47.702Z,21.92
2023-09-17T08:59:56.257Z,22.95
2023-09-17T09:01:00.060Z,24.50
2023-09-17T09:02:07.189Z,21.83
2023-09-17T09:03:09.827Z,24.92
2023-09-17T09:04:12.690Z,23.17
2023-09-17T09:05:16.181Z,23.75
2023-09-17T09:06:18.768Z,23.17
2023-09-17T09:07:24.016Z,22.92
2023-09-17T09:08:26.103Z,19.38
2023-09-17T09:09:28.204Z,18.98
2023-09-17T09:10:30.208Z,18.27
2023-09-17T09:11:35.756Z,21.50
2023-09-17T09:12:38.579Z,20.17
2023-09-17T09:13:41.584Z,19.75
2023-09-17T09:14:43.671Z,24.45
2023-09-17T09:15:45.704Z,20.77
2023-09-17T09:16:47.829Z,22.08
2023-09-17T09:17:50.103Z,23.58
2023-09-17T09:18:52.115Z,22.83
2023-09-17T09:19:54.080Z,22.05
2023-09-17T09:20:56.159Z,17.92
2023-09-17T09:21:58.037Z,21.38
2023-09-17T09:23:01.114Z,20.30
2023-09-17T09:24:03.118Z,20.88
2023-09-17T09:25:07.391Z,21.45
2023-09-17T09:26:09.442Z,20.90
2023-09-17T09:27:11.731Z,20.80
2023-09-17T09:28:13.606Z,21.05
2023-09-17T09:29:15.471Z,22.80
2023-09-17T09:30:17.361Z,20.85
2023-09-17T09:31:19.492Z,20.75
2023-09-17T09:32:21.627Z,23.48
2023-09-17T09:33:24.115Z,22.25
2023-09-17T09:34:26.438Z,26.08
2023-09-17T09:35:28.767Z,20.45
2023-09-17T09:36:33.926Z,20.50
2023-09-17T09:37:36.248Z,20.58
2023-09-17T09:38:38.296Z,21.10
2023-09-17T09:39:42.867Z,18.27
2023-09-17T09:40:45.883Z,17.25
2023-09-17T09:41:48.822Z,19.55
2023-09-17T09:42:50.746Z,19.50
2023-09-17T09:43:53.412Z,20.15
2023-09-17T09:44:55.989Z,20.00
2023-09-17T09:46:01.547Z,17.33
2023-09-17T09:47:03.945Z,17.50
2023-09-17T09:48:13.320Z,18.90
2023-09-17T09:49:15.234Z,18.80
2023-09-17T09:50:27.405Z,18.13
2023-09-17T09:51:32.896Z,17.40
2023-09-17T09:52:35.148Z,18.92
2023-09-17T09:53:37.128Z,14.98
2023-09-17T09:54:40.932Z,17.02
2023-09-17T09:55:42.825Z,20.33
2023-09-17T09:56:50.548Z,18.38
2023-09-17T09:57:53.045Z,14.98
2023-09-17T09:58:55.368Z,14.57
2023-09-17T09:59:57.297Z,13.95
2023-09-17T10:01:02.796Z,16.35
2023-09-17T10:02:05.571Z,14.55
2023-09-17T10:03:07.978Z,15.18
2023-09-17T10:04:10.735Z,15.52
2023-09-17T10:05:14.094Z,12.13
2023-09-17T10:06:16.071Z,13.52
2023-09-17T10:07:18.260Z,12.93
2023-09-17T10:08:21.828Z,14.77
2023-09-17T10:09:26.886Z,15.52
2023-09-17T10:10:28.811Z,13.63
2023-09-17T10:11:31.863Z,12.90
2023-09-17T10:12:35.263Z,13.55
2023-09-17T10:13:38.154Z,17.27
2023-09-17T10:14:41.808Z,11.88
2023-09-17T10:15:43.759Z,13.05
2023-09-17T10:16:45.673Z,12.73
2023-09-17T10:17:49.172Z,12.43
2023-09-17T10:18:52.099Z,11.23
2023-09-17T10:19:54.707Z,10.50
2023-09-17T10:20:57.596Z,12.05
2023-09-17T10:22:00.229Z,13.73
2023-09-17T10:23:03.495Z,12.75
2023-09-17T10:24:06.337Z,15.65
2023-09-17T10:25:09.548Z,13.35
2023-09-17T10:26:12.116Z,11.25
2023-09-17T10:27:14.883Z,8.68
2023-09-17T10:28:18.310Z,11.45
2023-09-17T10:29:21.488Z,11.85
2023-09-17T10:30:23.652Z,11.65
2023-09-17T10:31:25.729Z,10.68
2023-09-17T10:32:28.004Z,10.15
2023-09-17T10:33:33.715Z,11.50
2023-09-17T10:34:37.010Z,9.50
2023-09-17T10:35:39.843Z,9.30
2023-09-17T10:36:43.146Z,14.38
2023-09-17T10:37:47.417Z,8.25
2023-09-17T10:38:50.001Z,10.57
2023-09-17T10:39:53.355Z,8.30
2023-09-17T10:40:56.604Z,8.80
2023-09-17T10:41:59.875Z,13.00
2023-09-17T10:43:03.958Z,10.02
2023-09-17T10:44:06.831Z,8.73
2023-09-17T10:45:09.598Z,8.05
2023-09-17T10:46:14.001Z,11.23
2023-09-17T10:47:17.654Z,8.35
2023-09-17T10:48:21.699Z,8.30
2023-09-17T10:49:24.074Z,8.85
2023-09-17T10:50:28.732Z,8.60
2023-09-17T10:51:31.000Z,8.38
2023-09-17T10:52:33.485Z,7.65
2023-09-17T10:53:35.596Z,6.15
2023-09-17T10:54:37.578Z,6.82
2023-09-17T10:55:42.650Z,9.52
2023-09-17T10:56:46.962Z,10.38
2023-09-17T10:57:54.319Z,7.63
2023-09-17T10:58:56.276Z,8.23
2023-09-17T10:59:59.787Z,7.00
2023-09-17T11:01:02.092Z,8.02
2023-09-17T11:02:05.438Z,7.63
2023-09-17T11:03:08.070Z,9.38
2023-09-17T11:04:13.687Z,9.15
2023-09-17T11:05:17.862Z,8.00
2023-09-17T11:06:25.215Z,6.88
2023-09-17T11:07:27.779Z,7.18
2023-09-17T11:08:29.798Z,6.72
2023-09-17T11:09:32.182Z,9.43
2023-09-17T11:10:34.930Z,7.97
2023-09-17T11:11:37.483Z,7.30
2023-09-17T11:12:39.570Z,8.02
2023-09-17T11:13:44.131Z,7.78
2023-09-17T11:14:47.181Z,6.72
2023-09-17T11:15:52.530Z,6.43
2023-09-17T11:16:54.810Z,9.90
2023-09-17T11:17:59.470Z,7.72
2023-09-17T11:19:05.688Z,8.60
2023-09-17T11:20:13.846Z,7.30
2023-09-17T11:21:17.037Z,6.57
2023-09-17T11:22:19.684Z,6.88
2023-09-17T11:23:35.811Z,7.47
2023-09-17T11:24:41.607Z,10.20
2023-09-17T11:25:44.824Z,10.02
2023-09-17T11:26:47.170Z,6.93
2023-09-17T11:27:50.334Z,7.28
2023-09-17T11:28:55.785Z,9.05
2023-09-17T11:29:57.706Z,8.23
2023-09-17T11:31:00.632Z,9.45
2023-09-17T11:32:04.399Z,8.30
2023-09-17T11:33:07.960Z,7.43
2023-09-17T11:34:10.875Z,12.07
2023-09-17T11:35:13.101Z,9.07
2023-09-17T11:36:15.267Z,8.80
2023-09-17T11:37:18.075Z,8.43
2023-09-17T11:38:23.888Z,9.35
2023-09-17T11:39:25.988Z,10.45
2023-09-17T11:40:28.501Z,11.70
2023-09-17T11:41:32.244Z,14.15
2023-09-17T11:42:34.317Z,14.40
2023-09-17T11:43:37.388Z,13.55
2023-09-17T11:44:39.663Z,11.38
2023-09-17T11:45:41.567Z,14.00
2023-09-17T11:46:43.823Z,11.40
2023-09-17T11:47:45.866Z,11.90
2023-09-17T11:48:47.777Z,10.48
2023-09-17T11:49:51.387Z,14.45
2023-09-17T11:50:53.470Z,12.77
2023-09-17T11:51:58.263Z,11.85
2023-09-17T11:53:06.471Z,14.75
2023-09-17T11:54:09.224Z,16.67
2023-09-17T11:55:22.702Z,14.50
2023-09-17T11:56:25.677Z,14.65
2023-09-17T11:57:27.861Z,13.95
2023-09-17T11:58:33.415Z,16.83
2023-09-17T11:59:39.184Z,14.90
2023-09-17T12:00:41.096Z,15.75
2023-09-17T12:01:44.456Z,14.52
2023-09-17T12:02:47.120Z,13.43
2023-09-17T12:03:49.159Z,13.20
2023-09-17T12:04:52.850Z,10.95
2023-09-17T12:05:54.946Z,11.75
2023-09-17T12:06:57.557Z,8.45
2023-09-17T12:08:00.317Z,12.38
2023-09-17T12:09:08.747Z,8.45
2023-09-17T12:10:11.523Z,8.23
2023-09-17T12:11:23.015Z,9.05
2023-09-17T12:12:25.225Z,6.85
2023-09-17T12:13:30.193Z,8.32
2023-09-17T12:14:33.192Z,7.35
2023-09-17T12:15:35.279Z,7.28
2023-09-17T12:16:37.390Z,7.45
2023-09-17T12:17:45.005Z,6.20
2023-09-17T12:18:47.528Z,6.90
2023-09-17T12:19:54.849Z,5.72
2023-09-17T12:21:00.753Z,5.30
2023-09-17T12:22:08.418Z,7.10
2023-09-17T12:23:16.315Z,7.47
2023-09-17T12:24:27.287Z,6.55
2023-09-17T12:25:29.313Z,6.80
2023-09-17T12:26:36.694Z,7.20
2023-09-17T12:27:46.268Z,11.20
2023-09-17T12:28:48.795Z,6.75
2023-09-17T12:29:50.787Z,7.72
2023-09-17T12:30:52.866Z,8.93
2023-09-17T12:31:54.846Z,7.10
2023-09-17T12:32:56.811Z,8.00
2023-09-17T12:33:58.713Z,5.97
2023-09-17T12:35:00.632Z,9.82
2023-09-17T12:36:03.847Z,8.18
2023-09-17T12:37:06.821Z,7.05
2023-09-17T12:38:09.256Z,9.73
2023-09-17T12:39:12.370Z,8.57
2023-09-17T12:40:15.334Z,5.10
2023-09-17T12:41:28.210Z,5.00
2023-09-17T12:43:40.840Z,5.97
2023-09-17T12:44:42.837Z,4.18
2023-09-17T12:45:44.801Z,4.15
2023-09-17T12:46:46.786Z,4.93
2023-09-17T12:47:48.743Z,5.82
2023-09-17T12:48:51.164Z,3.85
2023-09-17T12:49:55.091Z,6.47
2023-09-17T12:50:59.448Z,4.35
2023-09-17T12:52:04.230Z,4.45
2023-09-17T12:53:06.157Z,5.07
2023-09-17T12:54:08.152Z,4.38
2023-09-17T12:55:10.122Z,4.30
2023-09-17T12:56:12.817Z,4.18
2023-09-17T12:57:14.852Z,4.90
2023-09-17T12:58:18.313Z,7.32
2023-09-17T12:59:29.936Z,4.97
2023-09-17T13:00:31.886Z,4.55
2023-09-17T13:01:34.121Z,5.32
2023-09-17T13:02:37.344Z,6.63
2023-09-17T13:04:11.525Z,5.45
2023-09-17T13:05:20.023Z,7.63
2023-09-17T13:06:24.696Z,4.93
2023-09-17T13:07:28.349Z,4.57
2023-09-17T13:08:30.559Z,5.35
2023-09-17T13:09:33.112Z,4.38
2023-09-17T13:10:36.219Z,7.47
2023-09-17T13:11:38.251Z,5.60
2023-09-17T13:12:44.463Z,6.18
2023-09-17T13:13:47.089Z,4.57
2023-09-17T13:14:51.630Z,5.55
2023-09-17T13:15:54.542Z,11.68
2023-09-17T13:16:56.671Z,4.72
2023-09-17T13:18:01.845Z,4.60
2023-09-17T13:19:03.811Z,3.97
2023-09-17T13:20:06.518Z,6.18
2023-09-17T13:21:08.509Z,6.53
2023-09-17T13:22:12.130Z,4.20
2023-09-17T13:23:14.892Z,3.92
2023-09-17T13:24:16.807Z,5.03
2023-09-17T13:25:19.000Z,6.60
2023-09-17T13:26:20.931Z,4.13
2023-09-17T13:27:22.973Z,4.22
2023-09-17T13:28:24.929Z,7.40
2023-09-17T13:29:35.585Z,4.60
2023-09-17T13:31:41.998Z,7.43
2023-09-17T13:32:44.055Z,5.15
2023-09-17T13:33:46.299Z,4.50
2023-09-17T13:34:48.697Z,4.22
2023-09-17T13:35:52.353Z,5.60
2023-09-17T13:36:54.694Z,4.68
2023-09-17T13:37:56.666Z,9.00
2023-09-17T13:39:01.139Z,4.90
2023-09-17T13:40:05.858Z,5.10
2023-09-17T13:41:07.813Z,5.25
2023-09-17T13:42:09.976Z,4.75